Time;durP1;ratioP1;P1;durP2;ratioP2;P2;SDS_P1;SDS_P2;PMS_P1;PMS_P2;Temp;Humidity;BMP_temperature;BMP_pressure;BME280_temperature;BME280_humidity;BME280_pressure;Samples;Min_cycle;Max_cycle;Signal;HPM_P1;HPM_P2
2021/01/03 00:00:39;;;;;;;;;;;18.80;38.60;;;;;;491806;240;1191;-52
2021/01/03 00:02:40;;;;;;;;;;;18.80;38.70;;;;;;492022;240;1178;-53
2021/01/03 00:04:42;;;;;;;;;;;18.80;38.70;;;;;;491650;240;1028;-53
2021/01/03 00:06:43;;;;;;;;;;;18.70;38.70;;;;;;491602;240;1052;-53
2021/01/03 00:08:45;;;;;;;;;;;18.70;37.50;;;;;;491682;240;2194;-53
2021/01/03 00:10:46;;;;;;;;;;;18.70;38.80;;;;;;491641;240;1090;-53
2021/01/03 00:12:48;;;;;;;;;;;18.70;38.80;;;;;;491700;240;1305;-52
2021/01/03 00:14:49;;;;;;;;;;;18.70;38.80;;;;;;491606;240;1206;-53
2021/01/03 00:16:50;;;;;;;;;;;18.60;38.80;;;;;;491618;240;1237;-53
2021/01/03 00:18:51;;;;;;;;;;;18.60;38.80;;;;;;491610;240;1071;-53
2021/01/03 00:20:53;;;;;;;;;;;18.60;38.80;;;;;;491572;240;1162;-53
2021/01/03 00:22:54;;;;;;;;;;;18.60;38.80;;;;;;491620;240;1193;-53
2021/01/03 00:24:55;;;;;;;;;;;18.60;38.90;;;;;;491777;240;1220;-53
2021/01/03 00:26:56;;;;;;;;;;;18.60;38.90;;;;;;491586;240;1176;-53
2021/01/03 00:28:58;;;;;;;;;;;18.60;38.90;;;;;;491656;240;2180;-53
2021/01/03 00:30:59;;;;;;;;;;;18.50;38.90;;;;;;491640;240;1218;-53
2021/01/03 00:33:00;;;;;;;;;;;18.50;38.90;;;;;;491664;240;1215;-52
2021/01/03 00:35:02;;;;;;;;;;;18.50;38.90;;;;;;491759;240;1032;-53
2021/01/03 00:37:03;;;;;;;;;;;18.50;38.90;;;;;;491632;240;1411;-53
2021/01/03 00:39:05;;;;;;;;;;;18.50;39.00;;;;;;491744;240;955;-53
2021/01/03 00:41:06;;;;;;;;;;;18.50;39.00;;;;;;491963;240;1034;-53
2021/01/03 00:43:07;;;;;;;;;;;18.50;39.00;;;;;;491696;240;1184;-53
2021/01/03 00:45:08;;;;;;;;;;;18.50;39.00;;;;;;491682;240;1157;-53
2021/01/03 00:47:10;;;;;;;;;;;18.40;39.00;;;;;;491895;240;1184;-52
2021/01/03 00:49:11;;;;;;;;;;;18.40;39.00;;;;;;491635;240;2188;-53
2021/01/03 00:51:13;;;;;;;;;;;18.40;39.00;;;;;;491657;240;1219;-53
2021/01/03 00:53:14;;;;;;;;;;;18.40;39.00;;;;;;491762;240;1011;-52
2021/01/03 00:55:15;;;;;;;;;;;18.40;39.00;;;;;;491985;240;1131;-53
2021/01/03 00:57:16;;;;;;;;;;;18.40;39.00;;;;;;491616;240;1470;-53
2021/01/03 00:59:18;;;;;;;;;;;18.40;39.10;;;;;;491866;240;1028;-53
2021/01/03 01:01:19;;;;;;;;;;;18.40;39.10;;;;;;491848;240;1200;-52
2021/01/03 01:03:21;;;;;;;;;;;18.40;39.10;;;;;;491731;240;1170;-53
2021/01/03 01:05:22;;;;;;;;;;;18.30;39.10;;;;;;491853;240;1082;-53
2021/01/03 01:07:23;;;;;;;;;;;18.30;39.10;;;;;;491676;240;1307;-53
2021/01/03 01:09:25;;;;;;;;;;;18.30;39.10;;;;;;491691;240;2152;-53
2021/01/03 01:11:26;;;;;;;;;;;18.30;39.10;;;;;;491821;240;1302;-53
2021/01/03 01:13:27;;;;;;;;;;;18.30;39.10;;;;;;491798;240;1011;-53
2021/01/03 01:15:28;;;;;;;;;;;18.30;39.10;;;;;;491842;240;1020;-52
2021/01/03 01:17:30;;;;;;;;;;;18.30;39.20;;;;;;491676;239;1311;-53
2021/01/03 01:19:31;;;;;;;;;;;18.30;39.20;;;;;;491984;240;1127;-53
2021/01/03 01:21:32;;;;;;;;;;;18.30;39.20;;;;;;491768;240;1048;-53
2021/01/03 01:23:34;;;;;;;;;;;18.30;39.20;;;;;;491701;240;1063;-53
2021/01/03 01:25:35;;;;;;;;;;;18.20;39.20;;;;;;492034;240;1019;-53
2021/01/03 01:27:36;;;;;;;;;;;18.20;39.20;;;;;;491640;240;1245;-53
2021/01/03 01:29:37;;;;;;;;;;;18.30;39.00;;;;;;491675;240;2188;-53
2021/01/03 01:31:39;;;;;;;;;;;18.30;38.90;;;;;;491757;240;1268;-53
2021/01/03 01:33:40;;;;;;;;;;;18.40;38.90;;;;;;491635;240;1183;-53
2021/01/03 01:35:41;;;;;;;;;;;18.40;38.90;;;;;;491755;240;947;-53
2021/01/03 01:37:42;;;;;;;;;;;18.40;38.80;;;;;;491980;240;1150;-53
2021/01/03 01:39:44;;;;;;;;;;;18.40;38.80;;;;;;491672;240;1081;-53
2021/01/03 01:41:45;;;;;;;;;;;18.40;38.70;;;;;;491771;240;1194;-53
2021/01/03 01:43:46;;;;;;;;;;;18.40;38.70;;;;;;491689;240;1045;-53
2021/01/03 01:45:47;;;;;;;;;;;18.50;38.70;;;;;;491784;240;1095;-52
2021/01/03 01:47:49;;;;;;;;;;;18.50;38.60;;;;;;491609;240;1148;-53
2021/01/03 01:49:50;;;;;;;;;;;18.50;38.60;;;;;;491798;240;2109;-53
2021/01/03 01:51:51;;;;;;;;;;;18.50;38.50;;;;;;491899;240;980;-53
2021/01/03 01:53:53;;;;;;;;;;;18.50;38.50;;;;;;491681;240;1044;-53
2021/01/03 01:55:54;;;;;;;;;;;18.60;38.50;;;;;;491688;240;1002;-53
2021/01/03 01:57:55;;;;;;;;;;;18.60;38.50;;;;;;491599;240;965;-53
2021/01/03 01:59:56;;;;;;;;;;;18.60;38.40;;;;;;491844;240;977;-53
2021/01/03 02:01:58;;;;;;;;;;;18.90;37.30;;;;;;491615;240;1015;-53
2021/01/03 02:03:59;;;;;;;;;;;18.60;38.40;;;;;;491709;240;1136;-53
2021/01/03 02:06:00;;;;;;;;;;;18.60;38.30;;;;;;491898;240;946;-53
2021/01/03 02:08:02;;;;;;;;;;;18.70;38.30;;;;;;491712;240;2137;-53
2021/01/03 02:10:03;;;;;;;;;;;18.70;38.30;;;;;;491594;240;1266;-53
2021/01/03 02:12:04;;;;;;;;;;;18.70;38.30;;;;;;491837;240;1484;-53
2021/01/03 02:14:05;;;;;;;;;;;18.70;38.20;;;;;;491852;240;1070;-53
2021/01/03 02:16:07;;;;;;;;;;;18.80;38.30;;;;;;491591;240;1149;-53
2021/01/03 02:18:08;;;;;;;;;;;18.80;38.20;;;;;;491728;240;1358;-53
2021/01/03 02:20:09;;;;;;;;;;;18.80;38.20;;;;;;491661;240;1228;-53
2021/01/03 02:22:11;;;;;;;;;;;18.80;38.20;;;;;;491703;240;1126;-53
2021/01/03 02:24:12;;;;;;;;;;;18.80;38.10;;;;;;491685;240;1068;-53
2021/01/03 02:26:13;;;;;;;;;;;18.80;38.10;;;;;;491737;240;1171;-53
2021/01/03 02:28:14;;;;;;;;;;;18.90;38.10;;;;;;491630;240;2188;-53
2021/01/03 02:30:16;;;;;;;;;;;18.90;38.10;;;;;;491619;240;1218;-53
2021/01/03 02:32:17;;;;;;;;;;;18.90;38.00;;;;;;491682;240;1191;-53
2021/01/03 02:34:18;;;;;;;;;;;18.90;38.00;;;;;;491678;240;1134;-53
2021/01/03 02:36:20;;;;;;;;;;;18.90;38.00;;;;;;491609;240;1110;-53
2021/01/03 02:38:21;;;;;;;;;;;18.90;38.00;;;;;;491641;240;1735;-53
2021/01/03 02:40:22;;;;;;;;;;;18.90;38.00;;;;;;491642;240;1086;-53
2021/01/03 02:42:23;;;;;;;;;;;19.00;38.00;;;;;;491742;240;1164;-53
2021/01/03 02:44:25;;;;;;;;;;;19.00;37.90;;;;;;491775;240;951;-53
2021/01/03 02:46:26;;;;;;;;;;;19.00;37.90;;;;;;491815;240;1029;-53
2021/01/03 02:48:27;;;;;;;;;;;19.00;37.90;;;;;;491751;240;2144;-53
2021/01/03 02:50:29;;;;;;;;;;;19.00;37.90;;;;;;491730;240;1087;-53
2021/01/03 02:52:30;;;;;;;;;;;19.00;37.80;;;;;;491730;240;927;-53
2021/01/03 02:54:31;;;;;;;;;;;19.00;37.80;;;;;;491671;240;981;-52
2021/01/03 02:56:32;;;;;;;;;;;19.00;37.80;;;;;;491715;240;1189;-53
2021/01/03 02:58:34;;;;;;;;;;;19.10;37.80;;;;;;491671;240;1214;-53
2021/01/03 03:00:35;;;;;;;;;;;19.10;37.80;;;;;;491759;240;1025;-52
2021/01/03 03:02:36;;;;;;;;;;;19.10;37.80;;;;;;491735;240;1075;-53
2021/01/03 03:04:37;;;;;;;;;;;19.10;37.80;;;;;;491704;240;1160;-53
2021/01/03 03:06:39;;;;;;;;;;;19.10;37.70;;;;;;491666;240;1022;-53
2021/01/03 03:08:40;;;;;;;;;;;19.10;37.70;;;;;;491646;240;2187;-53
2021/01/03 03:10:41;;;;;;;;;;;19.10;37.70;;;;;;491716;240;1126;-52
2021/01/03 03:12:42;;;;;;;;;;;19.10;37.70;;;;;;491735;240;1215;-53
2021/01/03 03:14:44;;;;;;;;;;;19.10;37.70;;;;;;491691;240;1080;-53
2021/01/03 03:16:45;;;;;;;;;;;19.20;37.70;;;;;;491781;240;1070;-53
2021/01/03 03:18:46;;;;;;;;;;;19.20;37.70;;;;;;491967;240;1149;-53
2021/01/03 03:20:48;;;;;;;;;;;19.20;37.70;;;;;;491691;240;1074;-53
2021/01/03 03:22:49;;;;;;;;;;;19.20;37.70;;;;;;491640;240;1285;-53
2021/01/03 03:24:50;;;;;;;;;;;19.20;37.60;;;;;;491687;240;969;-53
2021/01/03 03:26:52;;;;;;;;;;;19.20;37.60;;;;;;491645;240;1210;-53
2021/01/03 03:28:53;;;;;;;;;;;19.20;37.60;;;;;;491732;240;2184;-53
2021/01/03 03:30:54;;;;;;;;;;;19.20;37.60;;;;;;491563;240;1257;-53
2021/01/03 03:32:58;;;;;;;;;;;19.20;37.50;;;;;;491788;240;1233;-53
2021/01/03 03:34:57;;;;;;;;;;;19.30;37.50;;;;;;491625;240;2213;-53
2021/01/03 03:36:58;;;;;;;;;;;19.30;37.50;;;;;;491557;240;1119;-53
2021/01/03 03:38:59;;;;;;;;;;;19.30;37.50;;;;;;491902;240;1088;-53
2021/01/03 03:41:01;;;;;;;;;;;19.30;37.50;;;;;;491583;240;1134;-53
2021/01/03 03:43:02;;;;;;;;;;;19.30;37.50;;;;;;491803;238;1314;-53
2021/01/03 03:45:03;;;;;;;;;;;19.30;37.50;;;;;;491714;240;1231;-53
2021/01/03 03:47:04;;;;;;;;;;;19.30;37.50;;;;;;491733;240;1321;-53
2021/01/03 03:49:06;;;;;;;;;;;19.30;37.50;;;;;;491694;240;2252;-54
2021/01/03 03:51:07;;;;;;;;;;;19.30;37.50;;;;;;491515;240;1137;-53
2021/01/03 03:53:08;;;;;;;;;;;19.30;37.50;;;;;;491819;240;963;-53
2021/01/03 03:55:09;;;;;;;;;;;19.30;37.50;;;;;;491755;240;1079;-53
2021/01/03 03:57:11;;;;;;;;;;;19.30;37.50;;;;;;491588;240;1150;-53
2021/01/03 03:59:12;;;;;;;;;;;19.40;37.60;;;;;;491896;240;1060;-53
2021/01/03 04:01:13;;;;;;;;;;;19.40;37.50;;;;;;491610;240;1215;-53
2021/01/03 04:03:15;;;;;;;;;;;19.40;37.60;;;;;;491773;240;1046;-53
2021/01/03 04:05:16;;;;;;;;;;;19.40;37.50;;;;;;491690;240;1288;-53
2021/01/03 04:07:17;;;;;;;;;;;19.40;37.50;;;;;;491691;240;1291;-53
2021/01/03 04:09:18;;;;;;;;;;;19.40;37.50;;;;;;491745;240;2196;-53
2021/01/03 04:11:20;;;;;;;;;;;19.40;37.50;;;;;;491623;240;1060;-53
2021/01/03 04:13:21;;;;;;;;;;;19.40;36.20;;;;;;491994;240;1192;-53
2021/01/03 04:15:22;;;;;;;;;;;19.40;37.50;;;;;;491686;240;1030;-53
2021/01/03 04:17:23;;;;;;;;;;;19.40;37.40;;;;;;491638;240;1063;-53
2021/01/03 04:19:25;;;;;;;;;;;19.40;37.40;;;;;;491648;240;1294;-53
2021/01/03 04:21:26;;;;;;;;;;;19.40;37.40;;;;;;491977;240;1039;-53
2021/01/03 04:23:27;;;;;;;;;;;19.40;37.40;;;;;;491828;240;1308;-53
2021/01/03 04:25:29;;;;;;;;;;;19.40;36.10;;;;;;491616;240;1166;-53
2021/01/03 04:27:30;;;;;;;;;;;19.40;37.40;;;;;;491811;240;1075;-53
2021/01/03 04:29:31;;;;;;;;;;;19.50;37.40;;;;;;491626;240;2141;-53
2021/01/03 04:31:32;;;;;;;;;;;19.40;37.30;;;;;;491650;240;970;-53
2021/01/03 04:33:34;;;;;;;;;;;19.50;37.40;;;;;;491644;240;1423;-53
2021/01/03 04:35:35;;;;;;;;;;;19.50;37.40;;;;;;491714;240;1449;-53
2021/01/03 04:37:36;;;;;;;;;;;19.50;37.40;;;;;;491625;240;1077;-53
2021/01/03 04:39:38;;;;;;;;;;;19.50;37.40;;;;;;491891;240;1435;-53
2021/01/03 04:41:39;;;;;;;;;;;19.50;37.40;;;;;;491598;240;1237;-53
2021/01/03 04:43:40;;;;;;;;;;;19.50;37.40;;;;;;491734;240;1181;-53
2021/01/03 04:45:41;;;;;;;;;;;19.50;37.30;;;;;;491999;240;1146;-53
2021/01/03 04:47:43;;;;;;;;;;;19.50;37.40;;;;;;491733;240;1037;-53
2021/01/03 04:49:44;;;;;;;;;;;19.50;37.30;;;;;;491628;239;2140;-53
2021/01/03 04:51:45;;;;;;;;;;;19.50;37.30;;;;;;491617;240;1141;-53
2021/01/03 04:53:46;;;;;;;;;;;19.50;37.30;;;;;;491633;240;975;-53
2021/01/03 04:55:48;;;;;;;;;;;19.60;37.30;;;;;;491594;240;1053;-53
2021/01/03 04:57:49;;;;;;;;;;;19.60;37.40;;;;;;491608;240;1054;-53
2021/01/03 04:59:50;;;;;;;;;;;19.60;37.40;;;;;;491707;240;1518;-53
2021/01/03 05:01:52;;;;;;;;;;;19.60;37.40;;;;;;491621;240;961;-53
2021/01/03 05:03:53;;;;;;;;;;;19.60;37.30;;;;;;491979;240;1043;-53
2021/01/03 05:05:54;;;;;;;;;;;19.50;37.30;;;;;;491691;240;1207;-53
2021/01/03 05:07:56;;;;;;;;;;;19.60;37.30;;;;;;491876;240;1120;-53
2021/01/03 05:09:57;;;;;;;;;;;19.60;37.30;;;;;;491710;240;2206;-53
2021/01/03 05:11:58;;;;;;;;;;;19.60;37.30;;;;;;491743;240;1039;-53
2021/01/03 05:13:59;;;;;;;;;;;19.60;37.30;;;;;;491772;240;1348;-53
2021/01/03 05:16:01;;;;;;;;;;;19.60;37.30;;;;;;491676;240;1082;-53
2021/01/03 05:18:02;;;;;;;;;;;19.60;37.30;;;;;;491831;240;1052;-53
2021/01/03 05:20:03;;;;;;;;;;;19.60;37.30;;;;;;491661;240;1213;-53
2021/01/03 05:22:04;;;;;;;;;;;19.60;37.30;;;;;;491607;240;1093;-53
2021/01/03 05:24:06;;;;;;;;;;;19.60;37.30;;;;;;491917;240;1288;-54
2021/01/03 05:26:07;;;;;;;;;;;19.60;37.20;;;;;;491660;240;1028;-53
2021/01/03 05:28:08;;;;;;;;;;;19.60;37.20;;;;;;491686;240;966;-53
2021/01/03 05:30:10;;;;;;;;;;;19.60;37.20;;;;;;491642;240;2187;-53
2021/01/03 05:32:11;;;;;;;;;;;19.60;37.20;;;;;;491787;240;1030;-53
2021/01/03 05:34:12;;;;;;;;;;;19.70;37.20;;;;;;491740;240;1342;-53
2021/01/03 05:36:13;;;;;;;;;;;19.60;37.20;;;;;;491659;240;1178;-53
2021/01/03 05:38:15;;;;;;;;;;;19.70;37.20;;;;;;491684;240;1060;-53
2021/01/03 05:40:16;;;;;;;;;;;19.60;37.20;;;;;;491997;240;1168;-53
2021/01/03 05:42:17;;;;;;;;;;;19.70;37.30;;;;;;491670;240;1045;-53
2021/01/03 05:44:18;;;;;;;;;;;19.70;37.20;;;;;;491829;240;1354;-53
2021/01/03 05:46:20;;;;;;;;;;;19.70;37.20;;;;;;491745;240;1252;-53
2021/01/03 05:48:21;;;;;;;;;;;19.70;35.90;;;;;;491858;240;1057;-53
2021/01/03 05:50:22;;;;;;;;;;;19.70;37.20;;;;;;491592;240;2145;-53
2021/01/03 05:52:24;;;;;;;;;;;19.70;37.20;;;;;;491822;240;1333;-53
2021/01/03 05:54:25;;;;;;;;;;;19.70;37.20;;;;;;491800;240;1004;-53
2021/01/03 05:56:26;;;;;;;;;;;19.70;37.20;;;;;;491599;240;1063;-53
2021/01/03 05:58:27;;;;;;;;;;;19.70;37.10;;;;;;491788;240;1029;-53
2021/01/03 06:00:29;;;;;;;;;;;19.70;37.20;;;;;;491619;240;943;-53
2021/01/03 06:02:30;;;;;;;;;;;19.70;37.10;;;;;;491635;240;1077;-53
2021/01/03 06:04:31;;;;;;;;;;;19.70;37.10;;;;;;491665;240;2120;-53
2021/01/03 06:06:33;;;;;;;;;;;19.70;37.10;;;;;;491771;240;1155;-53
2021/01/03 06:08:34;;;;;;;;;;;19.70;37.10;;;;;;492059;240;1207;-53
2021/01/03 06:10:35;;;;;;;;;;;19.70;37.10;;;;;;491715;240;2137;-53
2021/01/03 06:12:36;;;;;;;;;;;19.70;37.10;;;;;;491766;240;1196;-53
2021/01/03 06:14:38;;;;;;;;;;;19.70;37.10;;;;;;491730;240;1025;-53
2021/01/03 06:16:39;;;;;;;;;;;19.80;37.20;;;;;;491741;240;1137;-53
2021/01/03 06:18:40;;;;;;;;;;;19.70;37.10;;;;;;491735;240;1175;-53
2021/01/03 06:20:41;;;;;;;;;;;19.80;37.20;;;;;;491667;240;1159;-53
2021/01/03 06:22:43;;;;;;;;;;;19.70;37.10;;;;;;491663;240;1280;-53
2021/01/03 06:24:44;;;;;;;;;;;19.80;37.20;;;;;;491759;240;943;-53
2021/01/03 06:26:45;;;;;;;;;;;19.80;37.10;;;;;;491754;240;957;-53
2021/01/03 06:28:46;;;;;;;;;;;19.70;37.10;;;;;;491639;240;1054;-53
2021/01/03 06:30:48;;;;;;;;;;;19.70;37.10;;;;;;491650;240;2187;-53
2021/01/03 06:32:49;;;;;;;;;;;19.80;37.10;;;;;;491666;240;925;-53
2021/01/03 06:34:50;;;;;;;;;;;19.80;37.10;;;;;;491748;240;998;-53
2021/01/03 06:36:52;;;;;;;;;;;19.70;37.10;;;;;;491608;240;1296;-53
2021/01/03 06:38:53;;;;;;;;;;;19.80;37.10;;;;;;491705;240;1141;-53
2021/01/03 06:40:54;;;;;;;;;;;19.80;37.10;;;;;;491661;240;995;-53
2021/01/03 06:42:56;;;;;;;;;;;19.70;37.00;;;;;;491745;240;1206;-53
2021/01/03 06:44:57;;;;;;;;;;;19.80;37.10;;;;;;491761;240;989;-53
2021/01/03 06:46:58;;;;;;;;;;;19.80;37.10;;;;;;491604;240;1134;-53
2021/01/03 06:48:59;;;;;;;;;;;19.80;37.00;;;;;;491677;240;1191;-54
2021/01/03 06:51:01;;;;;;;;;;;19.80;37.00;;;;;;491676;240;2180;-53
2021/01/03 06:53:02;;;;;;;;;;;19.80;37.10;;;;;;491708;240;1305;-53
2021/01/03 06:55:03;;;;;;;;;;;19.80;37.00;;;;;;491802;240;1253;-53
2021/01/03 06:57:04;;;;;;;;;;;19.80;37.00;;;;;;491632;240;1136;-53
2021/01/03 06:59:06;;;;;;;;;;;19.80;37.00;;;;;;491620;240;1131;-52
2021/01/03 07:01:07;;;;;;;;;;;19.80;37.00;;;;;;491702;240;1639;-53
2021/01/03 07:03:08;;;;;;;;;;;19.80;37.00;;;;;;491679;240;1191;-53
2021/01/03 07:05:10;;;;;;;;;;;19.80;37.00;;;;;;491621;240;1078;-54
2021/01/03 07:07:11;;;;;;;;;;;19.80;37.00;;;;;;491575;240;1193;-53
2021/01/03 07:09:12;;;;;;;;;;;19.80;37.00;;;;;;491693;240;1191;-53
2021/01/03 07:11:13;;;;;;;;;;;19.80;37.00;;;;;;491883;240;2124;-53
2021/01/03 07:13:15;;;;;;;;;;;19.90;37.00;;;;;;491655;240;1307;-53
2021/01/03 07:15:16;;;;;;;;;;;19.90;37.00;;;;;;491601;240;974;-53
2021/01/03 07:17:17;;;;;;;;;;;19.80;37.00;;;;;;491596;240;1141;-53
2021/01/03 07:19:19;;;;;;;;;;;19.90;37.00;;;;;;491757;240;956;-53
2021/01/03 07:21:20;;;;;;;;;;;19.90;37.00;;;;;;491665;240;1114;-53
2021/01/03 07:23:21;;;;;;;;;;;19.90;37.00;;;;;;491757;240;1197;-53
2021/01/03 07:25:22;;;;;;;;;;;19.90;37.00;;;;;;491632;240;1064;-53
2021/01/03 07:27:24;;;;;;;;;;;19.90;37.00;;;;;;491645;240;1141;-54
2021/01/03 07:29:25;;;;;;;;;;;19.90;37.00;;;;;;491787;240;1127;-53
2021/01/03 07:31:26;;;;;;;;;;;19.90;37.00;;;;;;491754;240;2125;-53
2021/01/03 07:33:28;;;;;;;;;;;19.90;37.00;;;;;;491667;240;1082;-53
2021/01/03 07:35:29;;;;;;;;;;;19.90;37.00;;;;;;491644;240;996;-53
2021/01/03 07:37:30;;;;;;;;;;;19.90;37.00;;;;;;491619;240;1297;-53
2021/01/03 07:39:32;;;;;;;;;;;19.90;37.00;;;;;;491569;242;2161;-53
2021/01/03 07:41:33;;;;;;;;;;;19.90;36.90;;;;;;491894;240;1184;-53
2021/01/03 07:43:34;;;;;;;;;;;19.90;37.00;;;;;;491657;240;1164;-53
2021/01/03 07:45:35;;;;;;;;;;;19.90;37.00;;;;;;491609;240;1023;-53
2021/01/03 07:47:37;;;;;;;;;;;19.90;37.00;;;;;;491754;240;1079;-53
2021/01/03 07:49:38;;;;;;;;;;;19.90;36.90;;;;;;491705;240;1011;-52
2021/01/03 07:51:39;;;;;;;;;;;19.90;36.90;;;;;;491600;239;2121;-53
2021/01/03 07:53:40;;;;;;;;;;;19.90;36.90;;;;;;491610;240;1104;-53
2021/01/03 07:55:42;;;;;;;;;;;19.90;36.90;;;;;;491654;240;1186;-53
2021/01/03 07:57:43;;;;;;;;;;;19.90;36.90;;;;;;491627;240;1052;-53
2021/01/03 07:59:44;;;;;;;;;;;19.90;36.90;;;;;;491771;240;1203;-52
2021/01/03 08:01:46;;;;;;;;;;;19.90;36.90;;;;;;491790;240;1062;-53
2021/01/03 08:03:47;;;;;;;;;;;19.90;36.90;;;;;;491665;240;1235;-53
2021/01/03 08:05:48;;;;;;;;;;;19.90;36.90;;;;;;491638;240;1194;-53
2021/01/03 08:07:49;;;;;;;;;;;19.90;36.90;;;;;;491738;240;1192;-53
2021/01/03 08:09:51;;;;;;;;;;;19.90;36.90;;;;;;491906;240;1220;-53
2021/01/03 08:11:52;;;;;;;;;;;19.90;36.90;;;;;;491669;240;2184;-52
2021/01/03 08:13:53;;;;;;;;;;;19.90;36.90;;;;;;491714;240;1029;-53
2021/01/03 08:15:55;;;;;;;;;;;19.90;36.90;;;;;;491537;240;1167;-53
2021/01/03 08:17:56;;;;;;;;;;;19.90;36.90;;;;;;491686;240;1155;-53
2021/01/03 08:20:01;;;;;;;;;;;20.00;36.90;;;;;;491885;240;1254;-53
2021/01/03 08:21:58;;;;;;;;;;;19.90;36.90;;;;;;491623;241;2231;-53
2021/01/03 08:24:00;;;;;;;;;;;19.90;36.80;;;;;;491662;240;1068;-54
2021/01/03 08:26:01;;;;;;;;;;;20.00;36.90;;;;;;491551;240;1261;-53
2021/01/03 08:28:02;;;;;;;;;;;20.00;37.60;;;;;;491719;240;1381;-53
2021/01/03 08:30:03;;;;;;;;;;;20.00;35.70;;;;;;491652;240;1311;-53
2021/01/03 08:32:05;;;;;;;;;;;20.10;36.90;;;;;;491836;240;2109;-53
2021/01/03 08:34:06;;;;;;;;;;;20.10;36.70;;;;;;491855;240;1018;-53
2021/01/03 08:36:07;;;;;;;;;;;20.10;36.80;;;;;;491773;240;1115;-53
2021/01/03 08:38:08;;;;;;;;;;;20.00;37.00;;;;;;491715;240;1223;-53
2021/01/03 08:40:10;;;;;;;;;;;19.90;36.90;;;;;;491762;240;1191;-53
2021/01/03 08:42:11;;;;;;;;;;;19.90;37.10;;;;;;491750;240;1037;-53
2021/01/03 08:44:12;;;;;;;;;;;19.80;37.20;;;;;;491605;240;1086;-53
2021/01/03 08:46:14;;;;;;;;;;;19.70;37.20;;;;;;491569;240;1316;-53
2021/01/03 08:48:15;;;;;;;;;;;19.70;37.40;;;;;;491765;240;1065;-53
2021/01/03 08:50:16;;;;;;;;;;;19.70;37.40;;;;;;491654;240;2136;-53
2021/01/03 08:52:17;;;;;;;;;;;19.60;37.50;;;;;;491620;240;1123;-53
2021/01/03 08:54:19;;;;;;;;;;;19.60;37.60;;;;;;491905;240;1127;-53
2021/01/03 08:56:20;;;;;;;;;;;19.50;37.60;;;;;;491633;240;1090;-53
2021/01/03 08:58:21;;;;;;;;;;;19.50;37.60;;;;;;491694;240;1043;-53
2021/01/03 09:00:23;;;;;;;;;;;19.40;36.40;;;;;;491692;240;970;-53
2021/01/03 09:02:24;;;;;;;;;;;19.40;37.80;;;;;;491919;240;1187;-53
2021/01/03 09:04:25;;;;;;;;;;;19.40;37.80;;;;;;491617;240;1199;-52
2021/01/03 09:06:26;;;;;;;;;;;19.40;37.90;;;;;;491681;240;1006;-53
2021/01/03 09:08:28;;;;;;;;;;;19.30;37.90;;;;;;491649;240;1175;-53
2021/01/03 09:10:29;;;;;;;;;;;19.30;37.90;;;;;;491651;240;2152;-53
2021/01/03 09:12:30;;;;;;;;;;;19.30;38.00;;;;;;491620;240;1053;-53
2021/01/03 09:14:32;;;;;;;;;;;19.20;38.10;;;;;;491677;240;1044;-53
2021/01/03 09:16:33;;;;;;;;;;;19.20;38.10;;;;;;491767;240;1204;-53
2021/01/03 09:18:34;;;;;;;;;;;19.20;38.20;;;;;;491646;240;1226;-53
2021/01/03 09:20:35;;;;;;;;;;;19.10;38.20;;;;;;491740;240;962;-52
2021/01/03 09:22:37;;;;;;;;;;;19.10;38.20;;;;;;491683;240;1145;-53
2021/01/03 09:24:38;;;;;;;;;;;19.10;38.30;;;;;;491766;240;1054;-53
2021/01/03 09:26:39;;;;;;;;;;;19.10;38.40;;;;;;491656;240;1031;-53
2021/01/03 09:28:40;;;;;;;;;;;19.00;38.30;;;;;;491698;240;1348;-52
2021/01/03 09:30:42;;;;;;;;;;;19.00;38.40;;;;;;491874;240;2136;-53
2021/01/03 09:32:43;;;;;;;;;;;19.00;38.50;;;;;;491649;240;1059;-53
2021/01/03 09:34:44;;;;;;;;;;;19.00;38.50;;;;;;491728;240;1075;-53
2021/01/03 09:36:45;;;;;;;;;;;18.90;38.40;;;;;;491638;240;1328;-53
2021/01/03 09:38:47;;;;;;;;;;;18.90;38.50;;;;;;491816;240;1084;-52
2021/01/03 09:40:48;;;;;;;;;;;18.90;38.60;;;;;;491962;240;1048;-53
2021/01/03 09:42:49;;;;;;;;;;;18.90;38.60;;;;;;491754;240;1358;-53
2021/01/03 09:44:51;;;;;;;;;;;18.90;38.60;;;;;;492081;240;951;-53
2021/01/03 09:46:52;;;;;;;;;;;18.80;38.60;;;;;;491631;240;1189;-53
2021/01/03 09:48:53;;;;;;;;;;;18.80;38.60;;;;;;492107;240;1102;-53
2021/01/03 09:50:54;;;;;;;;;;;18.80;38.60;;;;;;491641;240;2207;-53
2021/01/03 09:52:56;;;;;;;;;;;18.80;38.70;;;;;;491716;240;1185;-53
2021/01/03 09:54:57;;;;;;;;;;;18.80;38.70;;;;;;491616;240;1198;-53
2021/01/03 09:56:58;;;;;;;;;;;18.70;38.70;;;;;;491592;240;1557;-52
2021/01/03 09:59:00;;;;;;;;;;;18.80;38.80;;;;;;491751;240;1114;-53
2021/01/03 10:01:01;;;;;;;;;;;18.80;38.80;;;;;;491718;240;1222;-53
2021/01/03 10:03:02;;;;;;;;;;;18.70;38.70;;;;;;491603;240;1281;-53
2021/01/03 10:05:04;;;;;;;;;;;18.70;38.80;;;;;;491758;240;1249;-53
2021/01/03 10:07:05;;;;;;;;;;;18.60;38.80;;;;;;491536;240;1368;-53
2021/01/03 10:09:06;;;;;;;;;;;18.60;38.80;;;;;;491653;240;1193;-53
2021/01/03 10:11:08;;;;;;;;;;;18.60;38.80;;;;;;491704;240;2157;-53
2021/01/03 10:13:09;;;;;;;;;;;18.60;38.80;;;;;;491778;241;2293;-53
2021/01/03 10:15:10;;;;;;;;;;;18.60;38.80;;;;;;491897;240;974;-53
2021/01/03 10:17:11;;;;;;;;;;;18.60;38.90;;;;;;491775;240;1215;-53
2021/01/03 10:19:13;;;;;;;;;;;18.60;38.90;;;;;;491697;240;995;-52
2021/01/03 10:21:14;;;;;;;;;;;18.60;38.90;;;;;;491809;240;1321;-53
2021/01/03 10:23:16;;;;;;;;;;;18.60;38.90;;;;;;491739;240;1200;-53
2021/01/03 10:25:18;;;;;;;;;;;18.50;38.90;;;;;;491632;240;1120;-53
2021/01/03 10:27:18;;;;;;;;;;;18.60;38.90;;;;;;491643;240;1190;-53
2021/01/03 10:29:20;;;;;;;;;;;18.50;38.90;;;;;;491648;240;1033;-53
2021/01/03 10:31:21;;;;;;;;;;;18.50;38.90;;;;;;491590;240;2124;-53
2021/01/03 10:33:22;;;;;;;;;;;18.50;38.90;;;;;;491653;240;1055;-53
2021/01/03 10:35:23;;;;;;;;;;;18.50;39.00;;;;;;491568;240;1175;-53
2021/01/03 10:37:25;;;;;;;;;;;18.50;39.00;;;;;;491596;240;1116;-53
2021/01/03 10:39:26;;;;;;;;;;;18.50;39.00;;;;;;491661;240;1234;-53
2021/01/03 10:41:27;;;;;;;;;;;18.50;39.00;;;;;;491779;240;1126;-53
2021/01/03 10:43:29;;;;;;;;;;;18.50;39.00;;;;;;491786;240;1138;-52
2021/01/03 10:45:30;;;;;;;;;;;18.40;38.90;;;;;;491586;240;1196;-52
2021/01/03 10:47:31;;;;;;;;;;;18.50;39.00;;;;;;491611;240;1155;-53
2021/01/03 10:49:32;;;;;;;;;;;18.40;39.00;;;;;;491870;240;981;-53
2021/01/03 10:51:34;;;;;;;;;;;18.40;39.00;;;;;;491590;240;2192;-53
2021/01/03 10:53:35;;;;;;;;;;;18.40;39.00;;;;;;491641;240;1258;-53
2021/01/03 10:55:36;;;;;;;;;;;18.40;39.00;;;;;;491674;240;1080;-53
2021/01/03 10:57:37;;;;;;;;;;;18.40;39.00;;;;;;491632;240;1181;-53
2021/01/03 10:59:39;;;;;;;;;;;18.40;39.00;;;;;;491690;240;1075;-53
2021/01/03 11:01:40;;;;;;;;;;;18.40;39.00;;;;;;491776;240;974;-53
2021/01/03 11:03:41;;;;;;;;;;;18.40;39.00;;;;;;491636;240;1045;-53
2021/01/03 11:05:43;;;;;;;;;;;18.40;39.10;;;;;;491667;240;1033;-53
2021/01/03 11:07:44;;;;;;;;;;;18.40;39.10;;;;;;491649;240;1180;-52
2021/01/03 11:09:45;;;;;;;;;;;18.30;39.00;;;;;;491735;240;1189;-53
2021/01/03 11:11:46;;;;;;;;;;;18.40;39.10;;;;;;491772;240;2133;-53
2021/01/03 11:13:48;;;;;;;;;;;18.30;39.00;;;;;;491808;240;1047;-52
2021/01/03 11:15:49;;;;;;;;;;;18.30;39.00;;;;;;491641;240;1030;-53
2021/01/03 11:17:50;;;;;;;;;;;18.30;39.00;;;;;;491643;240;1154;-53
2021/01/03 11:19:51;;;;;;;;;;;18.30;39.10;;;;;;491642;240;1202;-53
2021/01/03 11:21:53;;;;;;;;;;;18.30;39.10;;;;;;491662;240;1241;-53
2021/01/03 11:23:54;;;;;;;;;;;18.30;37.80;;;;;;491671;240;1116;-53
2021/01/03 11:25:56;;;;;;;;;;;18.30;39.10;;;;;;491639;240;1146;-53
2021/01/03 11:27:57;;;;;;;;;;;18.30;39.10;;;;;;491790;240;1103;-53
2021/01/03 11:29:58;;;;;;;;;;;18.30;39.10;;;;;;491840;240;1277;-53
2021/01/03 11:31:59;;;;;;;;;;;18.30;39.10;;;;;;491606;240;2136;-53
2021/01/03 11:34:01;;;;;;;;;;;18.30;39.10;;;;;;491745;240;972;-53
2021/01/03 11:36:02;;;;;;;;;;;18.20;39.10;;;;;;491861;240;1196;-53
2021/01/03 11:38:03;;;;;;;;;;;18.30;39.10;;;;;;491700;240;1018;-53
2021/01/03 11:40:05;;;;;;;;;;;18.30;39.00;;;;;;491607;240;1621;-53
2021/01/03 11:42:06;;;;;;;;;;;18.30;38.90;;;;;;491759;240;1035;-53
2021/01/03 11:44:07;;;;;;;;;;;18.30;38.80;;;;;;491606;240;1181;-53
2021/01/03 11:46:08;;;;;;;;;;;18.30;38.80;;;;;;491721;240;1112;-53
2021/01/03 11:48:10;;;;;;;;;;;18.40;38.80;;;;;;491757;240;1035;-53
2021/01/03 11:50:11;;;;;;;;;;;18.40;38.80;;;;;;491748;240;1037;-53
2021/01/03 11:52:12;;;;;;;;;;;18.40;38.70;;;;;;491824;240;2184;-53
2021/01/03 11:54:13;;;;;;;;;;;18.50;38.70;;;;;;491658;240;1140;-53
2021/01/03 11:56:15;;;;;;;;;;;18.40;38.60;;;;;;491821;240;1124;-53